Weather History for Savanna, IL

Change the Weather History Date:

Saturday, April 6, 2013

  Actual Average (KCWI) Record (KCWI)
Temperature  
Mean Temperature 52 °F -  
Max Temperature 68 °F 58 °F 85 °F (1991)
Min Temperature 37 °F 34 °F 8 °F (1982)
Degree Days  
Heating Degree Days 12    
Growing Degree Days 2 (Base 50)    
Moisture  
Dew Point 33 °F    
Average Humidity 51    
Maximum Humidity 82    
Minimum Humidity 29    
Precipitation  
Precipitation 0.06 in - - ()
Sea Level Pressure  
Sea Level Pressure 29.78 in    
Wind  
Wind Speed 13 mph (South)    
Max Wind Speed 24 mph    
Max Gust Speed 36 mph    
Visibility 10 miles    
Events Rain , Thunderstorm    
Averages and records for this station are not official NWS values.
T = Trace of Precipitation, MM = Missing Value Source: NWS Daily Summary

Daily Weather History Graph

Daily Weather History Graph

Search for Another Location

Airport:

Trip Planner

Search our weather history database for the weather conditions in past years. The results will help you decide how hot, cold, wet, or windy it might be!

Date:

Astronomy

Apr. 06, 2013 Rise Set
Actual Time 6:34 AM CDT 7:31 PM CDT
Civil Twilight 6:05 AM CDT 8:00 PM CDT
Nautical Twilight 5:31 AM CDT 8:34 PM CDT
Astronomical Twilight 4:56 AM CDT 9:09 PM CDT
Moon 4:21 AM CDT (4/6) 3:57 PM CDT (4/6)
Length of Visible Light 13h 54m
Length of Day
12h 57m
Waning Crescent, 15% of the Moon is Illuminated
Apr 6
Waning Crescent
Apr 10
New
Apr 18
First Quarter
Apr 25
Full
May 2
Last Quarter

Hourly Weather History & Observations

Time (CDT) Temp. Windchill Dew Point Humidity Pressure Visibility Wind Dir Wind Speed Gust Speed Precip Events Conditions
12:15 AM 40.5 °F 34.1 °F 16.9 °F 39% 30.07 in 10.0 mi ESE 10.4 mph - N/A   Scattered Clouds
12:35 AM 40.3 °F 32.6 °F 14.4 °F 35% 30.06 in 10.0 mi East 13.8 mph 19.6 mph N/A   Scattered Clouds
12:55 AM 40.3 °F 34.9 °F 13.6 °F 34% 30.05 in 10.0 mi ESE 8.1 mph - N/A   Scattered Clouds
1:15 AM 40.1 °F 33.6 °F 13.6 °F 34% 30.05 in 10.0 mi ESE 10.4 mph - N/A   Scattered Clouds
1:35 AM 39.7 °F 33.2 °F 13.6 °F 35% 30.05 in 10.0 mi ESE 10.4 mph - N/A   Scattered Clouds
1:55 AM 39.7 °F 33.2 °F 13.6 °F 35% 30.03 in 10.0 mi ESE 10.4 mph - N/A   Scattered Clouds
2:15 AM 39.6 °F 34.7 °F 14.0 °F 35% 30.03 in 10.0 mi ESE 6.9 mph - N/A   Scattered Clouds
2:35 AM 39.4 °F 31.4 °F 13.3 °F 34% 30.02 in 10.0 mi ESE 13.8 mph 18.4 mph N/A   Scattered Clouds
2:55 AM 39.2 °F 32.0 °F 14.2 °F 36% 30.01 in 10.0 mi ESE 11.5 mph 21.9 mph N/A   Mostly Cloudy
3:15 AM 39.0 °F 31.8 °F 15.8 °F 39% 30.01 in 10.0 mi SE 11.5 mph 17.3 mph N/A   Scattered Clouds
3:35 AM 38.7 °F 31.4 °F 16.7 °F 41% 30.00 in 10.0 mi ESE 11.5 mph 20.7 mph N/A   Mostly Cloudy
3:55 AM 38.5 °F 32.7 °F 17.8 °F 43% 30.00 in 10.0 mi SE 8.1 mph 17.3 mph N/A   Mostly Cloudy
4:15 AM 38.3 °F 31.4 °F 18.0 °F 44% 30.00 in 10.0 mi ESE 10.4 mph - N/A   Scattered Clouds
4:35 AM 38.3 °F 30.9 °F 18.5 °F 45% 29.99 in 10.0 mi ESE 11.5 mph 17.3 mph N/A   Mostly Cloudy
4:55 AM 38.3 °F 30.5 °F 19.4 °F 47% 29.98 in 10.0 mi ESE 12.7 mph - N/A   Scattered Clouds
5:15 AM 38.3 °F 30.9 °F 20.1 °F 48% 29.98 in 10.0 mi ESE 11.5 mph - N/A   Scattered Clouds
5:35 AM 37.9 °F 30.9 °F 20.7 °F 50% 29.97 in 10.0 mi ESE 10.4 mph - N/A   Scattered Clouds
5:55 AM 37.8 °F 30.2 °F 21.4 °F 52% 29.96 in 10.0 mi ESE 11.5 mph 19.6 mph N/A   Scattered Clouds
6:15 AM 38.3 °F 29.0 °F 22.3 °F 53% 29.94 in 10.0 mi SE 17.3 mph 20.7 mph N/A   Scattered Clouds
6:35 AM 38.5 °F 30.3 °F 23.4 °F 55% 29.94 in 10.0 mi SE 13.8 mph 18.4 mph N/A   Mostly Cloudy
6:55 AM 38.5 °F 30.3 °F 24.3 °F 57% 29.93 in 10.0 mi SE 13.8 mph 19.6 mph N/A   Overcast
7:15 AM 39.2 °F 31.6 °F 25.3 °F 58% 29.92 in 10.0 mi SE 12.7 mph 18.4 mph N/A   Overcast
7:35 AM 40.1 °F 32.7 °F 26.2 °F 58% 29.92 in 10.0 mi SE 12.7 mph - N/A   Overcast
7:55 AM 41.0 °F 33.5 °F 26.6 °F 57% 29.91 in 10.0 mi SE 13.8 mph - N/A   Overcast
8:15 AM 41.9 °F 34.3 °F 27.5 °F 57% 29.88 in 10.0 mi SE 15.0 mph 18.4 mph N/A   Overcast
8:35 AM 41.9 °F 34.3 °F 28.2 °F 58% 29.86 in 10.0 mi SE 15.0 mph - N/A   Mostly Cloudy
8:55 AM 44.1 °F 37.4 °F 28.8 °F 55% 29.86 in 10.0 mi SSE 13.8 mph - N/A   Mostly Cloudy
9:15 AM 44.6 °F 38.4 °F 29.5 °F 55% 29.85 in 10.0 mi SSE 12.7 mph - N/A   Scattered Clouds
9:35 AM 45.5 °F 38.9 °F 30.0 °F 55% 29.84 in 10.0 mi SSE 15.0 mph - N/A   Scattered Clouds
9:55 AM 46.6 °F - 30.6 °F 54% 29.82 in 10.0 mi SSE 16.1 mph - N/A   Mostly Cloudy
10:15 AM 48.2 °F - 31.5 °F 52% 29.80 in 10.0 mi SSE 16.1 mph - N/A   Mostly Cloudy
10:35 AM 50.4 °F - 32.2 °F 50% 29.77 in 10.0 mi SSE 18.4 mph - N/A   Mostly Cloudy
10:55 AM 53.4 °F - 33.3 °F 46% 29.76 in 10.0 mi SSE 16.1 mph 19.6 mph N/A   Scattered Clouds
11:15 AM 55.4 °F - 34.2 °F 45% 29.74 in 10.0 mi SSE 18.4 mph 25.3 mph N/A   Clear
11:35 AM 62.1 °F - 34.9 °F 36% 29.73 in 10.0 mi SSE 24.2 mph 28.8 mph N/A   Clear
11:55 AM 63.1 °F - 33.4 °F 33% 29.71 in 10.0 mi South 24.2 mph 32.2 mph N/A   Clear
12:15 PM 63.7 °F - 33.4 °F 32% 29.71 in 10.0 mi South 18.4 mph 26.5 mph N/A   Clear
12:35 PM 65.7 °F - 33.3 °F 30% 29.71 in 10.0 mi South 20.7 mph 26.5 mph N/A   Clear
12:55 PM 66.2 °F - 33.1 °F 29% 29.70 in 10.0 mi South 24.2 mph 32.2 mph N/A   Clear
1:15 PM 65.3 °F - 33.4 °F 31% 29.69 in 10.0 mi South 13.8 mph 21.9 mph N/A   Scattered Clouds
1:35 PM 65.3 °F - 34.3 °F 32% 29.67 in 10.0 mi South 15.0 mph - N/A   Mostly Cloudy
1:55 PM 65.3 °F - 34.7 °F 32% 29.65 in 10.0 mi South 17.3 mph 23.0 mph N/A   Overcast
2:15 PM 63.9 °F - 36.5 °F 36% 29.64 in 10.0 mi SSW 11.5 mph - N/A   Mostly Cloudy
2:35 PM 64.0 °F - 36.9 °F 37% 29.63 in 10.0 mi SSW 11.5 mph 23.0 mph N/A Rain Light Rain
2:55 PM 63.0 °F - 36.9 °F 38% 29.63 in 10.0 mi SSW 13.8 mph - N/A   Scattered Clouds
3:15 PM 65.1 °F - 37.4 °F 36% 29.62 in 10.0 mi SSW 12.7 mph 18.4 mph N/A   Clear
3:35 PM 68.2 °F - 37.4 °F 32% 29.60 in 10.0 mi SSW 18.4 mph 25.3 mph N/A   Clear
3:55 PM 66.7 °F - 37.8 °F 34% 29.60 in 10.0 mi SSW 23.0 mph 29.9 mph N/A   Clear
4:15 PM 67.8 °F - 38.5 °F 34% 29.61 in 10.0 mi SW 23.0 mph 32.2 mph N/A   Clear
4:35 PM 66.6 °F - 39.2 °F 37% 29.61 in 10.0 mi SW 19.6 mph 26.5 mph N/A   Scattered Clouds
4:55 PM 65.7 °F - 39.4 °F 38% 29.61 in 10.0 mi SW 18.4 mph 27.6 mph N/A   Overcast
5:15 PM 62.4 °F - 43.9 °F 51% 29.60 in 10.0 mi SW 12.7 mph - N/A Rain Light Rain
5:35 PM 62.1 °F - 43.9 °F 51% 29.60 in 10.0 mi SW 11.5 mph - N/A Rain Light Rain
5:55 PM 59.0 °F - 46.9 °F 64% 29.61 in 10.0 mi SSW 13.8 mph 18.4 mph 0.01 in Rain Light Rain
6:15 PM 57.6 °F - 48.0 °F 70% 29.60 in 10.0 mi SSW 6.9 mph - N/A Rain Light Rain
6:35 PM 57.2 °F - 47.3 °F 69% 29.59 in 10.0 mi SSW 8.1 mph - N/A Thunderstorm Overcast
6:55 PM 57.7 °F - 46.2 °F 65% 29.59 in 10.0 mi SSW 9.2 mph - N/A Rain Light Rain
7:15 PM 57.4 °F - 46.6 °F 67% 29.59 in 10.0 mi SSW 5.8 mph - N/A Rain Rain
7:35 PM 57.0 °F - 46.6 °F 68% 29.58 in 10.0 mi SSW 5.8 mph - N/A   Overcast
7:55 PM 57.6 °F - 46.4 °F 66% 29.58 in 10.0 mi South 5.8 mph - N/A   Overcast
8:15 PM 57.7 °F - 46.6 °F 66% 29.59 in 10.0 mi SW 10.4 mph - N/A Thunderstorm Overcast
8:35 PM 57.9 °F - 49.1 °F 72% 29.60 in 7.0 mi SW 15.0 mph 35.7 mph 0.03 in Rain Light Rain
8:55 PM 55.4 °F - 49.1 °F 79% 29.60 in 10.0 mi SSW 9.2 mph - 0.04 in Rain , Thunderstorm Light Thunderstorms and Rain
9:15 PM 54.0 °F - 48.7 °F 82% 29.61 in 10.0 mi SSW 6.9 mph - 0.01 in Thunderstorm Unknown
9:35 PM 55.0 °F - 49.3 °F 81% 29.61 in 10.0 mi SW 9.2 mph - 0.01 in Thunderstorm Thunderstorm
9:55 PM 56.3 °F - 50.0 °F 79% 29.62 in 10.0 mi West 17.3 mph - 0.01 in Thunderstorm Scattered Clouds
10:15 PM 55.2 °F - 48.9 °F 79% 29.62 in 10.0 mi West 16.1 mph 20.7 mph N/A   Scattered Clouds
10:35 PM 53.6 °F - 46.8 °F 78% 29.65 in 10.0 mi West 19.6 mph 27.6 mph N/A   Mostly Cloudy
10:55 PM 51.8 °F - 45.7 °F 80% 29.66 in 10.0 mi WNW 12.7 mph 23.0 mph N/A   Overcast
11:15 PM 51.1 °F - 44.8 °F 79% 29.66 in 10.0 mi WNW 19.6 mph 27.6 mph N/A   Overcast
11:35 PM 50.5 °F - 44.8 °F 81% 29.67 in 10.0 mi West 15.0 mph 23.0 mph N/A   Overcast
11:55 PM 49.5 °F - 43.3 °F 79% 29.68 in 10.0 mi West 15.0 mph 26.5 mph N/A   Overcast